Latest Coastal Weather Observations for Laverton

IDV60701

Issued at 12:21 pm EST Monday 1 May 2017 (issued every 10 minutes, with the page automatically refreshed every 10 minutes)

About coastal observations | Map of coastal stations | Coastal observations for VIC | Marine services | Other Formats
Station Details ID: 087031 Name: LAVERTON RAAF Lat: -37.86 Lon: 144.76 Height: 20.1 m
Data from the previous 72 hours. | See also: Recent months at Laverton
Date/Time
EST
Temp
°C
Wind Pressure Rain since
9am
mm
Weather Cloud Vis
km
Sea
Height
m
Swell
Dir  Spd
kts
Gust
kts
hPa Trend Height
m
Period
s
Dir
01/12:00pm 18.1 N 13 19 1013.6 - 0.0 - Mostly cloudy 10 - - - -
01/11:30am 17.9 N 15 22 1014.0 - 0.0 - Partly cloudy 10 - - - -
01/11:00am 18.2 N 12 21 1014.3 - 0.0 - - 10 - - - -
01/10:30am 17.4 N 13 21 1014.5 - 0.0 - Partly cloudy 10 - - - -
01/10:00am 15.9 N 11 16 1015.2 - 0.0 - Cloudy 10 - - - -
01/09:30am 15.5 N 9 13 1015.5 - 0.0 - Cloudy 10 - - - -
01/09:00am 15.2 N 8 12 1015.7 - 0.0 - Cloudy 10 - - - -
01/08:30am 15.2 N 8 13 1015.8 - 0.0 - Cloudy 10 - - - -
01/08:00am 14.8 N 7 11 1015.8 - 0.0 - Partly cloudy 10 - - - -
01/07:30am 14.3 N 6 10 1015.7 - 0.0 - Partly cloudy 10 - - - -
01/07:00am 14.1 N 8 12 1015.5 - 0.0 - Partly cloudy 10 - - - -
01/06:30am 13.8 N 7 10 1015.3 - 0.0 - Partly cloudy 10 - - - -
01/06:00am 14.0 NNW 7 9 1015.2 - 0.0 - Cloudy 10 - - - -
01/05:30am 14.1 N 7 10 1014.8 - 0.0 - Partly cloudy 10 - - - -
01/05:00am 14.3 N 8 12 1014.6 - 0.0 - Partly cloudy 10 - - - -
01/04:30am 14.5 N 10 13 1014.9 - 0.0 - Cloudy 10 - - - -
01/04:00am 14.6 N 9 14 1015.1 - 0.0 - Cloudy 10 - - - -
01/03:30am 14.4 NNE 9 14 1015.3 - 0.0 - Cloudy 10 - - - -
01/03:00am 14.2 N 9 13 1015.6 - 0.0 - Cloudy 10 - - - -
01/02:30am 14.1 NNE 9 15 1015.8 - 0.0 - Cloudy 10 - - - -
01/02:00am 13.9 N 8 11 1016.8 - 0.0 - Cloudy 10 - - - -
01/01:30am 13.8 N 7 11 1017.1 - 0.0 - Cloudy 10 - - - -
01/01:00am 14.1 N 8 11 1017.4 - 0.0 - Partly cloudy 10 - - - -
01/12:30am 14.1 N 8 11 1017.6 - 0.0 - Partly cloudy 10 - - - -
01/12:00am 14.0 N 8 12 1017.7 - 0.0 - Cloudy 10 - - - -
 
Date/Time
EST
Temp
°C
Wind Pressure Rain since
9am
mm
Weather Cloud Vis
km
Sea
Height
m
Swell
Dir  Spd
kts
Gust
kts
hPa Trend Height
m
Period
s
Dir
30/11:30pm 14.2 N 11 14 1017.9 - 0.0 - Cloudy 10 - - - -
30/11:00pm 14.2 N 11 17 1018.3 - 0.0 - Cloudy 10 - - - -
30/10:30pm 14.3 N 10 15 1018.4 - 0.0 - Cloudy 10 - - - -
30/10:00pm 14.2 N 10 14 1018.6 - 0.0 - Cloudy 10 - - - -
30/09:30pm 14.0 N 11 17 1018.9 - 0.0 - Cloudy 10 - - - -
30/09:00pm 13.9 N 10 16 1019.0 - 0.0 - Mostly cloudy 10 - - - -
30/08:30pm 13.8 NNE 9 13 1019.2 - 0.0 - Cloudy 10 - - - -
30/08:00pm 13.9 NNE 9 15 1019.4 - 0.0 - Cloudy 10 - - - -
30/07:30pm 13.7 NNE 8 12 1019.5 - 0.0 - Cloudy 10 - - - -
30/07:00pm 14.4 NNE 7 10 1019.6 - 0.0 - Cloudy 10 - - - -
30/06:30pm 14.9 N 7 10 1019.6 - 0.0 - Cloudy 10 - - - -
30/06:00pm 14.8 N 6 9 1019.7 - 0.0 - Cloudy 10 - - - -
30/05:30pm 14.9 N 7 9 1019.6 - 0.0 - Cloudy 10 - - - -
30/05:00pm 15.0 NNW 7 11 1019.4 - 0.0 - Cloudy 10 - - - -
30/04:30pm 15.3 N 7 11 1019.4 - 0.0 - Cloudy 10 - - - -
30/04:00pm 15.5 N 11 15 1019.5 - 0.0 - Cloudy 10 - - - -
30/03:30pm 15.6 NW 8 10 1019.7 - 0.0 - Cloudy 10 - - - -
30/03:00pm 15.8 NNW 7 9 1019.8 - 0.0 - Cloudy 10 - - - -
30/02:30pm 15.7 N 6 8 1020.0 - 0.0 - Cloudy 10 - - - -
30/02:00pm 15.8 NNW 4 7 1020.4 - 0.0 - Cloudy 10 - - - -
30/01:30pm 15.6 NNW 6 8 1020.9 - 0.0 - Partly cloudy 10 - - - -
30/01:00pm 15.7 NW 9 12 1021.3 - 0.0 - Cloudy 10 - - - -
30/12:30pm 14.4 NNW 10 13 1021.9 - 0.0 - Cloudy 10 - - - -
30/12:00pm 14.4 WNW 6 8 1022.4 - 0.0 - Cloudy 10 - - - -
30/11:30am 14.1 WNW 7 11 1022.8 - 0.0 - Cloudy 10 - - - -
30/11:00am 14.0 WNW 8 11 1023.1 - 0.0 - Cloudy 10 - - - -
30/10:30am 13.9 W 8 11 1023.2 - 0.0 - Cloudy 10 - - - -
30/10:00am 13.8 W 7 9 1023.3 - 0.0 - Cloudy 10 - - - -
30/09:30am 13.9 WNW 5 8 1023.5 - 0.0 - Cloudy 10 - - - -
30/09:00am 13.7 WNW 6 7 1023.6 - 0.0 - Cloudy 10 - - - -
30/08:30am 13.6 NW 4 5 1023.3 - 0.0 - Cloudy 10 - - - -
30/08:00am 13.4 NW 6 9 1023.1 - 0.0 - Cloudy 10 - - - -
30/07:30am 13.0 NW 4 5 1022.9 - 0.0 - Cloudy 10 - - - -
30/07:00am 12.8 WNW 3 5 1022.8 - 0.0 - Cloudy 10 - - - -
30/06:30am 13.1 W 2 4 1022.5 - 0.0 - Cloudy 10 - - - -
30/06:00am 13.0 NW 4 5 1022.5 - 0.0 - Cloudy 10 - - - -
30/05:30am 13.0 WNW 3 5 1022.6 - 0.0 - Cloudy 10 - - - -
30/05:00am 12.9 W 3 4 1022.6 - 0.0 - Cloudy 10 - - - -
30/04:30am 12.9 W 4 5 1022.6 - 0.0 - Cloudy 10 - - - -
30/04:00am 12.6 CALM 0 0 1022.7 - 0.0 - Cloudy 10 - - - -
30/03:30am 12.7 NW 4 5 1022.8 - 0.0 - Cloudy 10 - - - -
30/03:00am 12.7 WNW 4 5 1023.2 - 0.0 - Cloudy 10 - - - -
30/02:30am 12.9 W 4 6 1023.4 - 0.0 - Cloudy 10 - - - -
30/02:00am 12.8 W 5 6 1023.5 - 0.0 - Cloudy 10 - - - -
30/01:30am 12.6 W 5 7 1023.5 - 0.0 - Cloudy 10 - - - -
30/01:00am 12.3 W 1 4 1023.5 - 0.0 - Cloudy 10 - - - -
30/12:30am 12.2 W 5 7 1023.6 - 0.0 - Partly cloudy 10 - - - -
30/12:00am 11.9 W 5 7 1023.7 - 0.0 - Mostly cloudy 10 - - - -
 
Date/Time
EST
Temp
°C
Wind Pressure Rain since
9am
mm
Weather Cloud Vis
km
Sea
Height
m
Swell
Dir  Spd
kts
Gust
kts
hPa Trend Height
m
Period
s
Dir
29/11:30pm 11.4 NW 6 7 1023.7 - 0.0 - Cloudy 10 - - - -
29/11:00pm 11.1 NW 6 6 1023.7 - 0.0 - Cloudy 10 - - - -
29/10:30pm 11.5 NW 6 7 1023.5 - 0.0 - Cloudy 10 - - - -
29/10:00pm 11.4 NW 6 6 1023.7 - 0.0 - Partly cloudy 10 - - - -
29/09:30pm 11.5 W 5 6 1023.7 - 0.0 - - 10 - - - -
29/09:00pm 12.3 SSW 2 3 1023.7 - 0.0 - Mostly clear 10 - - - -
29/08:30pm 13.3 SSW 3 4 1023.6 - 0.0 - Partly cloudy 10 - - - -
29/08:00pm 13.8 SW 4 5 1023.6 - 0.0 - Partly cloudy 10 - - - -
29/07:30pm 14.5 S 5 7 1023.7 - 0.0 - Partly cloudy 10 - - - -
29/07:00pm 14.9 S 8 10 1023.5 - 0.0 - Partly cloudy 10 - - - -
29/06:30pm 14.9 SSE 6 8 1023.2 - 0.0 - Partly cloudy 10 - - - -
29/06:00pm 15.4 S 8 12 1023.0 - 0.0 - Cloudy 10 - - - -
29/05:30pm 15.7 SSE 7 10 1022.7 - 0.0 - Partly cloudy 10 - - - -
29/05:00pm 15.7 SSE 6 10 1022.6 - 0.0 - Partly cloudy 10 - - - -
29/04:30pm 16.0 SSE 8 11 1022.5 - 0.0 - Partly cloudy 10 - - - -
29/04:00pm 16.2 SSE 9 13 1022.3 - 0.0 - Partly cloudy 10 - - - -
29/03:30pm 16.2 SSE 7 10 1022.1 - 0.0 - Partly cloudy 10 - - - -
29/03:00pm 16.3 SSE 8 11 1022.0 - 0.0 - Cloudy 10 - - - -
29/02:56pm 16.3 SSE 8 10 1021.9 - 0.0 - Partly cloudy 10 - - - -
29/02:44pm 16.3 SSE 10 13 1021.8 - 0.0 - Partly cloudy 10 - - - -
29/02:30pm 17.0 S 10 14 1021.8 - 0.0 - Partly cloudy 10 - - - -
29/02:00pm 17.4 SSW 10 16 1021.6 - 0.0 - Partly cloudy 10 - - - -
29/01:30pm 19.2 WSW 9 13 1021.6 - 0.0 - Partly cloudy 10 - - - -
29/01:00pm 18.7 WSW 11 17 1022.1 - 0.0 - Partly cloudy 10 - - - -
29/12:30pm 16.8 W 12 18 1022.5 - 0.0 - Partly cloudy 10 - - - -
29/12:00pm 17.5 WSW 8 12 1022.8 - 0.0 - Cloudy 10 - - - -
29/11:30am 17.0 WSW 9 14 1023.0 - 0.0 - Partly cloudy 10 - - - -
29/11:00am 17.4 WSW 10 15 1022.9 - 0.0 - Partly cloudy 10 - - - -
29/10:30am 17.1 WSW 10 15 1022.8 - 0.0 - Partly cloudy 10 - - - -
29/10:00am 16.8 WSW 11 17 1022.9 - 0.0 - Partly cloudy 10 - - - -
29/09:30am 16.2 W 10 14 1023.0 - 0.0 - Partly cloudy 10 - - - -
29/09:00am 15.5 W 8 11 1022.9 - 0.0 - Cloudy 10 - - - -
29/08:30am 14.8 WNW 8 11 1022.7 - 0.0 - Partly cloudy 10 - - - -
29/08:00am 14.5 W 8 11 1022.4 - 0.0 - Partly cloudy 10 - - - -
29/07:30am 14.2 WNW 6 8 1022.1 - 0.0 - Partly cloudy 10 - - - -
29/07:23am 14.2 WNW 6 8 1022.1 - 0.0 - Partly cloudy 10 - - - -
29/07:03am 14.5 W 8 13 1022.0 - 0.0 - Partly cloudy 7 - - - -
29/07:00am 14.6 W 6 9 1022.0 - 0.0 - Partly cloudy 10 - - - -
29/06:30am 14.4 W 6 8 1021.9 - 0.0 - Partly cloudy 10 - - - -
29/06:00am 14.6 W 7 9 1021.8 - 0.0 - Cloudy 10 - - - -
29/05:30am 14.7 W 9 12 1021.7 - 0.0 - Partly cloudy 10 - - - -
29/05:00am 14.2 WNW 5 6 1021.6 - 0.0 - Partly cloudy 10 - - - -
29/04:30am 14.1 NW 4 5 1021.5 - 0.0 - Partly cloudy 10 - - - -
29/04:00am 14.2 NW 4 5 1021.4 - 0.0 - Cloudy 10 - - - -
29/03:30am 14.2 NW 7 9 1021.4 - 0.0 - Partly cloudy 10 - - - -
29/03:00am 13.9 NW 4 5 1021.5 - 0.0 - Cloudy 10 - - - -
29/02:30am 13.9 WNW 6 8 1021.7 - 0.0 - Partly cloudy 10 - - - -
29/02:00am 13.6 NW 4 5 1022.0 - 0.0 - Partly cloudy 10 - - - -
29/01:30am 13.6 NW 5 6 1022.1 - 0.0 - Partly cloudy 10 - - - -
29/01:00am 13.9 WNW 6 7 1022.0 - 0.0 - Partly cloudy 10 - - - -
29/12:30am 13.9 WNW 6 7 1022.2 - 0.0 - Partly cloudy 10 - - - -
29/12:00am 14.1 WNW 8 11 1022.2 - 0.0 - Mostly clear 10 - - - -
 
Date/Time
EST
Temp
°C
Wind Pressure Rain since
9am
mm
Weather Cloud Vis
km
Sea
Height
m
Swell
Dir  Spd
kts
Gust
kts
hPa Trend Height
m
Period
s
Dir
28/11:30pm 14.9 W 10 14 1022.5 - 0.0 - Partly cloudy 10 - - - -
28/11:00pm 14.8 W 7 9 1022.6 - 0.0 - Partly cloudy 10 - - - -
28/10:30pm 15.2 W 7 9 1022.7 - 0.0 - Partly cloudy 10 - - - -
28/10:00pm 15.3 WSW 7 9 1022.9 - 0.0 - Partly cloudy 10 - - - -
28/09:30pm 15.4 W 6 7 1022.9 - 0.0 - Partly cloudy 10 - - - -
28/09:00pm 15.6 W 7 10 1022.7 - 0.0 - Cloudy 10 - - - -
28/08:30pm 15.6 W 6 9 1022.7 - 0.0 - Partly cloudy 10 - - - -
28/08:00pm 15.3 WSW 5 7 1022.7 - 0.0 - Partly cloudy 10 - - - -
28/07:30pm 15.5 W 7 9 1022.6 - 0.0 - Partly cloudy 10 - - - -
28/07:00pm 15.5 W 7 9 1022.4 - 0.0 - Partly cloudy 10 - - - -
28/06:30pm 16.3 W 7 10 1022.3 - 0.0 - Partly cloudy 10 - - - -
28/06:00pm 16.5 W 8 11 1022.1 - 0.0 - Mostly clear 10 - - - -
28/05:30pm 17.4 W 10 14 1022.0 - 0.0 - Partly cloudy 10 - - - -
28/05:00pm 17.8 W 9 12 1021.8 - 0.0 - Partly cloudy 10 - - - -
28/04:30pm 18.1 W 11 16 1021.9 - 0.0 - Partly cloudy 10 - - - -
28/04:00pm 18.5 W 9 13 1021.8 - 0.0 - Partly cloudy 10 - - - -
28/03:30pm 18.8 WSW 11 15 1021.9 - 0.0 - Cloudy 10 - - - -
28/03:00pm 18.5 W 12 18 1022.0 - 0.0 - Mostly cloudy 10 - - - -
28/02:30pm 19.0 W 11 19 1022.1 - 0.0 - Partly cloudy 10 - - - -
28/02:00pm 18.6 W 11 17 1022.2 - 0.0 - Partly cloudy 10 - - - -
28/01:30pm 18.3 W 11 16 1022.3 - 0.0 - Partly cloudy 10 - - - -
28/01:00pm 17.8 W 11 17 1022.6 - 0.0 - Partly cloudy 10 - - - -
28/12:30pm 17.5 W 10 13 1022.9 - 0.0 - Partly cloudy 10 - - - -

Other Formats:

Comma delimited format used in spreadsheet applications
http://www.bom.gov.au/fwo/IDV60701/IDV60701.94865.axf

JavaScript Object Notation format (JSON) in row-major order
http://www.bom.gov.au/fwo/IDV60701/IDV60701.94865.json